createdAt,value
2023-03-21T00:00:07.019Z,61.20
2023-03-21T00:01:05.733Z,60.68
2023-03-21T00:02:06.055Z,60.99
2023-03-21T00:03:05.721Z,61.10
2023-03-21T00:04:05.975Z,60.58
2023-03-21T00:05:15.308Z,60.68
2023-03-21T00:06:06.938Z,60.78
2023-03-21T00:07:05.550Z,61.40
2023-03-21T00:08:05.920Z,61.10
2023-03-21T00:09:05.728Z,61.51
2023-03-21T00:10:15.450Z,61.82
2023-03-21T00:11:06.732Z,61.82
2023-03-21T00:12:05.727Z,61.71
2023-03-21T00:13:05.867Z,62.54
2023-03-21T00:14:05.735Z,62.75
2023-03-21T00:15:05.739Z,62.77
2023-03-21T00:16:12.729Z,63.92
2023-03-21T00:17:06.618Z,63.50
2023-03-21T00:18:05.785Z,63.53
2023-03-21T00:19:05.073Z,63.64
2023-03-21T00:20:05.995Z,63.95
2023-03-21T00:21:37.582Z,62.18
2023-03-21T00:22:08.802Z,61.15
2023-03-21T00:23:05.711Z,60.01
2023-03-21T00:24:05.700Z,58.04
2023-03-21T00:25:05.669Z,56.39
2023-03-21T00:26:05.674Z,56.18
2023-03-21T00:27:33.731Z,55.98
2023-03-21T00:28:08.724Z,55.66
2023-03-21T00:29:05.409Z,55.56
2023-03-21T00:30:05.598Z,56.18
2023-03-21T00:31:05.597Z,56.93
2023-03-21T00:32:05.597Z,56.83
2023-03-21T00:33:21.800Z,56.00
2023-03-21T00:34:07.287Z,55.90
2023-03-21T00:35:40.753Z,56.62
2023-03-21T00:36:07.321Z,57.24
2023-03-21T00:37:05.528Z,55.10
2023-03-21T00:38:05.513Z,53.96
2023-03-21T00:39:05.511Z,53.96
2023-03-21T00:40:07.009Z,54.58
2023-03-21T00:41:18.759Z,55.20
2023-03-21T00:42:06.462Z,55.51
2023-03-21T00:43:05.651Z,56.54
2023-03-21T00:44:05.430Z,57.81
2023-03-21T00:45:05.403Z,56.68
2023-03-21T00:46:05.416Z,57.50
2023-03-21T00:47:07.827Z,57.30
2023-03-21T00:48:05.487Z,57.30
2023-03-21T00:49:05.378Z,55.87
2023-03-21T00:50:05.321Z,54.73
2023-03-21T00:51:05.328Z,53.59
2023-03-21T00:52:15.068Z,51.93
2023-03-21T00:53:06.314Z,51.10
2023-03-21T00:54:05.287Z,51.42
2023-03-21T00:55:05.260Z,51.21
2023-03-21T00:56:05.282Z,51.29
2023-03-21T00:57:05.271Z,51.73
2023-03-21T00:58:05.245Z,50.77
2023-03-21T00:59:05.248Z,50.67
2023-03-21T01:00:05.194Z,49.42
2023-03-21T01:01:05.273Z,49.21
2023-03-21T01:02:05.263Z,49.11
2023-03-21T01:03:17.599Z,49.21
2023-03-21T01:04:06.164Z,49.63
2023-03-21T01:05:05.177Z,49.84
2023-03-21T01:06:05.149Z,50.35
2023-03-21T01:07:05.125Z,50.77
2023-03-21T01:08:17.083Z,51.26
2023-03-21T01:09:06.101Z,51.08
2023-03-21T01:10:05.071Z,50.74
2023-03-21T01:11:05.074Z,50.43
2023-03-21T01:12:05.772Z,51.50
2023-03-21T01:13:05.049Z,51.60
2023-03-21T01:14:20.956Z,51.91
2023-03-21T01:15:05.332Z,52.12
2023-03-21T01:16:04.788Z,52.01
2023-03-21T01:17:04.782Z,51.60
2023-03-21T01:18:04.776Z,50.77
2023-03-21T01:19:07.083Z,51.06
2023-03-21T01:20:04.935Z,51.26
2023-03-21T01:21:04.785Z,51.57
2023-03-21T01:22:04.937Z,51.99
2023-03-21T01:23:04.806Z,51.78
2023-03-21T01:24:04.908Z,51.99
2023-03-21T01:25:21.053Z,52.40
2023-03-21T01:26:05.883Z,52.72
2023-03-21T01:27:04.863Z,53.23
2023-03-21T01:28:04.850Z,53.23
2023-03-21T01:29:04.695Z,53.64
2023-03-21T01:30:11.305Z,53.44
2023-03-21T01:31:05.718Z,53.83
2023-03-21T01:32:04.800Z,54.14
2023-03-21T01:33:04.700Z,54.24
2023-03-21T01:34:04.696Z,54.45
2023-03-21T01:35:04.339Z,54.97
2023-03-21T01:36:12.710Z,55.07
2023-03-21T01:37:06.494Z,55.49
2023-03-21T01:38:05.707Z,55.90
2023-03-21T01:39:04.719Z,55.49
2023-03-21T01:40:05.416Z,55.90
2023-03-21T01:41:17.115Z,56.39
2023-03-21T01:42:05.676Z,56.81
2023-03-21T01:43:04.654Z,57.53
2023-03-21T01:44:04.631Z,57.53
2023-03-21T01:45:04.594Z,57.53
2023-03-21T01:46:04.686Z,57.53
2023-03-21T01:47:11.039Z,57.32
2023-03-21T01:48:05.662Z,57.53
2023-03-21T01:49:04.561Z,57.22
2023-03-21T01:50:04.533Z,57.73
2023-03-21T01:51:04.542Z,57.42
2023-03-21T01:52:12.809Z,57.01
2023-03-21T01:53:05.506Z,57.53
2023-03-21T01:54:04.497Z,57.73
2023-03-21T01:55:04.469Z,58.36
2023-03-21T01:56:04.466Z,58.07
2023-03-21T01:57:04.457Z,57.87
2023-03-21T01:58:07.053Z,57.76
2023-03-21T01:59:04.425Z,57.76
2023-03-21T02:00:04.394Z,57.14
2023-03-21T02:01:04.525Z,57.04
2023-03-21T02:02:04.391Z,57.14
2023-03-21T02:03:13.587Z,57.35
2023-03-21T02:04:05.618Z,56.83
2023-03-21T02:05:04.351Z,56.10
2023-03-21T02:06:04.325Z,55.28
2023-03-21T02:07:04.338Z,54.97
2023-03-21T02:08:04.313Z,54.35
2023-03-21T02:09:04.291Z,54.14
2023-03-21T02:10:04.271Z,54.76
2023-03-21T02:11:04.241Z,54.76
2023-03-21T02:12:04.248Z,54.35
2023-03-21T02:13:04.229Z,54.76
2023-03-21T02:14:06.719Z,54.76
2023-03-21T02:15:04.207Z,54.55
2023-03-21T02:16:04.166Z,54.35
2023-03-21T02:17:04.175Z,54.55
2023-03-21T02:18:04.166Z,54.45
2023-03-21T02:19:04.146Z,54.45
2023-03-21T02:20:04.134Z,54.03
2023-03-21T02:21:04.357Z,53.93
2023-03-21T02:22:03.388Z,53.83
2023-03-21T02:23:03.424Z,54.24
2023-03-21T02:24:04.086Z,54.35
2023-03-21T02:25:10.646Z,54.66
2023-03-21T02:26:05.031Z,55.28
2023-03-21T02:27:04.689Z,56.00
2023-03-21T02:28:04.029Z,56.10
2023-03-21T02:29:04.017Z,56.10
2023-03-21T02:30:03.683Z,56.31
2023-03-21T02:31:03.730Z,56.31
2023-03-21T02:32:17.927Z,55.69
2023-03-21T02:33:04.786Z,54.58
2023-03-21T02:34:03.964Z,53.64
2023-03-21T02:35:03.839Z,54.27
2023-03-21T02:36:13.554Z,55.51
2023-03-21T02:37:04.899Z,56.75
2023-03-21T02:38:03.849Z,56.03
2023-03-21T02:39:03.884Z,54.68
2023-03-21T02:40:03.866Z,54.39
2023-03-21T02:41:10.117Z,53.88
2023-03-21T02:42:04.841Z,52.74
2023-03-21T02:43:04.285Z,51.39
2023-03-21T02:44:04.538Z,50.35
2023-03-21T02:45:04.516Z,50.56
2023-03-21T02:46:04.561Z,51.08
2023-03-21T02:47:06.316Z,51.81
2023-03-21T02:48:04.537Z,51.91
2023-03-21T02:49:03.857Z,52.64
2023-03-21T02:50:03.731Z,52.95
2023-03-21T02:51:04.455Z,53.05
2023-03-21T02:52:14.532Z,52.84
2023-03-21T02:53:04.468Z,53.15
2023-03-21T02:54:29.991Z,52.33
2023-03-21T02:55:04.671Z,51.29
2023-03-21T02:56:03.646Z,51.81
2023-03-21T02:57:03.641Z,52.12
2023-03-21T02:58:12.314Z,52.64
2023-03-21T02:59:03.898Z,53.05
2023-03-21T03:00:15.604Z,51.10
2023-03-21T03:01:05.344Z,50.07
2023-03-21T03:02:03.575Z,49.13
2023-03-21T03:03:09.891Z,48.82
2023-03-21T03:04:04.580Z,49.55
2023-03-21T03:05:11.563Z,50.38
2023-03-21T03:06:04.499Z,50.38
2023-03-21T03:07:03.513Z,49.65
2023-03-21T03:08:03.510Z,48.61
2023-03-21T03:09:03.479Z,49.44
2023-03-21T03:10:03.466Z,48.72
2023-03-21T03:11:03.426Z,49.65
2023-03-21T03:12:03.448Z,50.27
2023-03-21T03:13:03.437Z,51.00
2023-03-21T03:14:21.209Z,51.75
2023-03-21T03:15:04.500Z,53.00
2023-03-21T03:16:03.391Z,52.89
2023-03-21T03:17:03.384Z,52.79
2023-03-21T03:18:03.366Z,50.71
2023-03-21T03:19:03.355Z,48.64
2023-03-21T03:20:15.124Z,47.81
2023-03-21T03:21:04.313Z,47.81
2023-03-21T03:22:03.314Z,47.60
2023-03-21T03:23:03.296Z,48.22
2023-03-21T03:24:03.299Z,49.05
2023-03-21T03:25:17.768Z,49.47
2023-03-21T03:26:04.268Z,49.68
2023-03-21T03:27:03.235Z,50.30
2023-03-21T03:28:03.236Z,52.17
2023-03-21T03:29:03.218Z,51.67
2023-03-21T03:30:03.944Z,50.74
2023-03-21T03:31:09.550Z,50.32
2023-03-21T03:32:04.228Z,49.49
2023-03-21T03:33:03.168Z,48.56
2023-03-21T03:34:02.886Z,48.04
2023-03-21T03:35:03.148Z,48.14
2023-03-21T03:36:06.595Z,47.00
2023-03-21T03:37:02.901Z,45.53
2023-03-21T03:38:02.884Z,46.56
2023-03-21T03:39:02.885Z,46.88
2023-03-21T03:40:03.079Z,47.81
2023-03-21T03:41:03.062Z,48.43
2023-03-21T03:42:18.264Z,48.12
2023-03-21T03:43:04.045Z,48.85
2023-03-21T03:44:02.293Z,47.50
2023-03-21T03:45:03.014Z,47.91
2023-03-21T03:46:03.000Z,48.35
2023-03-21T03:47:02.366Z,48.25
2023-03-21T03:48:03.013Z,49.08
2023-03-21T03:49:02.955Z,48.77
2023-03-21T03:50:02.479Z,49.29
2023-03-21T03:51:02.513Z,49.39
2023-03-21T03:52:02.894Z,49.39
2023-03-21T03:53:07.086Z,49.80
2023-03-21T03:54:03.897Z,48.87
2023-03-21T03:55:02.646Z,49.29
2023-03-21T03:56:02.874Z,48.56
2023-03-21T03:57:02.840Z,48.87
2023-03-21T03:58:04.650Z,49.62
2023-03-21T03:59:02.836Z,49.82
2023-03-21T04:00:02.821Z,49.72
2023-03-21T04:01:03.516Z,50.13
2023-03-21T04:02:02.822Z,50.45
2023-03-21T04:03:03.607Z,50.45
2023-03-21T04:04:12.562Z,51.59
2023-03-21T04:05:03.757Z,50.45
2023-03-21T04:06:03.466Z,49.72
2023-03-21T04:07:03.449Z,49.30
2023-03-21T04:08:03.435Z,48.16
2023-03-21T04:09:07.904Z,47.13
2023-03-21T04:10:04.399Z,46.92
2023-03-21T04:11:02.676Z,46.40
2023-03-21T04:12:02.634Z,46.61
2023-03-21T04:13:02.662Z,47.75
2023-03-21T04:14:02.622Z,48.58
2023-03-21T04:15:10.064Z,49.54
2023-03-21T04:16:03.637Z,50.05
2023-03-21T04:17:02.570Z,49.85
2023-03-21T04:18:01.927Z,48.19
2023-03-21T04:19:02.560Z,47.05
2023-03-21T04:20:11.357Z,46.63
2023-03-21T04:21:03.552Z,47.15
2023-03-21T04:22:02.499Z,47.77
2023-03-21T04:23:02.516Z,47.36
2023-03-21T04:24:02.495Z,46.94
2023-03-21T04:25:02.490Z,46.53
2023-03-21T04:26:02.483Z,46.63
2023-03-21T04:27:03.186Z,47.15
2023-03-21T04:28:02.437Z,47.05
2023-03-21T04:29:02.435Z,46.42
2023-03-21T04:30:02.406Z,46.73
2023-03-21T04:31:08.902Z,48.71
2023-03-21T04:32:03.461Z,48.60
2023-03-21T04:33:02.367Z,48.91
2023-03-21T04:34:02.359Z,49.12
2023-03-21T04:35:02.378Z,49.02
2023-03-21T04:36:02.352Z,50.05
2023-03-21T04:37:02.298Z,49.43
2023-03-21T04:38:02.322Z,49.95
2023-03-21T04:39:02.303Z,48.94
2023-03-21T04:40:02.270Z,47.25
2023-03-21T04:41:02.281Z,45.38
2023-03-21T04:42:02.261Z,44.24
2023-03-21T04:43:02.218Z,44.65
2023-03-21T04:44:02.221Z,44.55
2023-03-21T04:45:02.216Z,43.82
2023-03-21T04:46:01.974Z,43.30
2023-03-21T04:47:01.934Z,43.60
2023-03-21T04:48:01.981Z,44.12
2023-03-21T04:49:01.937Z,44.53
2023-03-21T04:50:01.534Z,45.05
2023-03-21T04:51:02.126Z,45.47
2023-03-21T04:52:02.123Z,45.67
2023-03-21T04:53:02.073Z,45.98
2023-03-21T04:54:02.087Z,46.19
2023-03-21T04:55:01.949Z,45.78
2023-03-21T04:56:01.947Z,45.88
2023-03-21T04:57:02.042Z,46.19
2023-03-21T04:58:01.952Z,46.30
2023-03-21T04:59:02.030Z,47.02
2023-03-21T05:00:02.027Z,47.23
2023-03-21T05:01:01.979Z,47.46
2023-03-21T05:02:01.416Z,46.31
2023-03-21T05:03:01.953Z,45.59
2023-03-21T05:04:02.713Z,45.47
2023-03-21T05:05:02.657Z,45.88
2023-03-21T05:06:01.943Z,46.19
2023-03-21T05:07:01.940Z,45.57
2023-03-21T05:08:01.887Z,44.74
2023-03-21T05:09:01.918Z,44.22
2023-03-21T05:10:02.634Z,45.36
2023-03-21T05:11:01.860Z,44.95
2023-03-21T05:12:01.864Z,45.15
2023-03-21T05:13:02.583Z,45.47
2023-03-21T05:14:01.824Z,46.19
2023-03-21T05:15:01.808Z,45.78
2023-03-21T05:16:01.800Z,46.19
2023-03-21T05:17:01.854Z,46.40
2023-03-21T05:18:01.559Z,46.40
2023-03-21T05:19:01.758Z,46.71
2023-03-21T05:20:01.747Z,46.92
2023-03-21T05:21:01.749Z,47.33
2023-03-21T05:22:01.724Z,47.02
2023-03-21T05:23:01.686Z,46.92
2023-03-21T05:24:01.687Z,46.92
2023-03-21T05:25:01.673Z,47.33
2023-03-21T05:26:01.666Z,47.75
2023-03-21T05:27:01.701Z,47.96
2023-03-21T05:28:01.613Z,48.16
2023-03-21T05:29:01.623Z,48.27
2023-03-21T05:30:02.326Z,48.27
2023-03-21T05:31:01.609Z,48.68
2023-03-21T05:32:01.592Z,48.79
2023-03-21T05:33:01.549Z,48.47
2023-03-21T05:34:01.561Z,47.64
2023-03-21T05:35:01.560Z,47.96
2023-03-21T05:36:01.569Z,47.75
2023-03-21T05:37:01.515Z,47.75
2023-03-21T05:38:00.789Z,47.85
2023-03-21T05:39:01.485Z,48.79
2023-03-21T05:40:01.468Z,48.16
2023-03-21T05:41:01.478Z,48.47
2023-03-21T05:42:01.461Z,48.89
2023-03-21T05:43:01.426Z,49.18
2023-03-21T05:44:01.425Z,49.80
2023-03-21T05:45:01.409Z,49.60
2023-03-21T05:46:01.040Z,49.91
2023-03-21T05:47:01.381Z,49.60
2023-03-21T05:48:01.382Z,49.60
2023-03-21T05:49:01.352Z,49.60
2023-03-21T05:50:01.362Z,49.49
2023-03-21T05:51:01.335Z,49.49
2023-03-21T05:52:01.312Z,49.70
2023-03-21T05:53:02.040Z,50.51
2023-03-21T05:54:01.294Z,49.60
2023-03-21T05:55:01.271Z,49.68
2023-03-21T05:56:01.273Z,49.68
2023-03-21T05:57:01.253Z,49.78
2023-03-21T05:58:00.759Z,49.68
2023-03-21T05:59:00.764Z,49.26
2023-03-21T06:00:00.782Z,49.57
2023-03-21T06:01:01.201Z,50.30
2023-03-21T06:02:00.539Z,50.40
2023-03-21T06:03:01.199Z,50.51
2023-03-21T06:04:01.258Z,49.96
2023-03-21T06:05:00.912Z,50.38
2023-03-21T06:06:01.138Z,51.31
2023-03-21T06:07:01.134Z,53.08
2023-03-21T06:08:01.000Z,52.66
2023-03-21T06:09:01.090Z,52.14
2023-03-21T06:10:01.010Z,53.69
2023-03-21T06:11:01.070Z,52.76
2023-03-21T06:12:01.065Z,53.69
2023-03-21T06:13:01.056Z,52.87
2023-03-21T06:14:01.768Z,53.46
2023-03-21T06:15:02.010Z,53.98
2023-03-21T06:16:01.788Z,54.81
2023-03-21T06:17:01.721Z,55.85
2023-03-21T06:18:00.251Z,57.09
2023-03-21T06:19:00.952Z,56.57
2023-03-21T06:20:00.947Z,56.99
2023-03-21T06:21:01.653Z,57.17
2023-03-21T06:22:01.656Z,57.89
2023-03-21T06:23:01.632Z,57.68
2023-03-21T06:24:01.621Z,58.51
2023-03-21T06:25:01.603Z,59.14
2023-03-21T06:26:01.584Z,59.03
2023-03-21T06:27:03.959Z,59.00
2023-03-21T06:28:00.861Z,58.48
2023-03-21T06:29:01.549Z,59.21
2023-03-21T06:30:01.565Z,60.04
2023-03-21T06:31:01.576Z,60.32
2023-03-21T06:32:01.514Z,60.42
2023-03-21T06:33:00.786Z,60.94
2023-03-21T06:34:00.745Z,60.84
2023-03-21T06:35:00.747Z,60.74
2023-03-21T06:36:00.801Z,61.12
2023-03-21T06:37:00.734Z,60.91
2023-03-21T06:38:00.711Z,62.05
2023-03-21T06:39:00.695Z,62.44
2023-03-21T06:40:00.684Z,63.26
2023-03-21T06:41:00.672Z,64.30
2023-03-21T06:42:00.657Z,65.23
2023-03-21T06:43:00.655Z,64.40
2023-03-21T06:44:00.619Z,66.85
2023-03-21T06:45:00.612Z,66.96
2023-03-21T06:46:00.610Z,68.16
2023-03-21T06:47:00.635Z,67.34
2023-03-21T06:48:01.264Z,67.34
2023-03-21T06:49:00.579Z,68.78
2023-03-21T06:49:59.839Z,69.78
2023-03-21T06:51:00.547Z,69.27
2023-03-21T06:52:00.515Z,68.65
2023-03-21T06:53:00.511Z,69.54
2023-03-21T06:54:00.470Z,72.33
2023-03-21T06:55:00.498Z,72.44
2023-03-21T06:56:00.463Z,73.16
2023-03-21T06:57:00.461Z,73.64
2023-03-21T06:58:00.441Z,74.77
2023-03-21T06:59:00.408Z,75.49
2023-03-21T07:00:00.427Z,74.98
2023-03-21T07:01:00.469Z,74.12
2023-03-21T07:02:00.390Z,73.91
2023-03-21T07:03:00.412Z,74.53
2023-03-21T07:04:00.345Z,75.32
2023-03-21T07:05:00.355Z,76.35
2023-03-21T07:05:59.602Z,77.38
2023-03-21T07:07:00.332Z,78.83
2023-03-21T07:08:00.313Z,80.13
2023-03-21T07:09:00.076Z,80.85
2023-03-21T07:10:00.048Z,82.40
2023-03-21T07:11:00.052Z,83.01
2023-03-21T07:12:00.241Z,81.57
2023-03-21T07:13:00.082Z,83.49
2023-03-21T07:14:00.056Z,85.75
2023-03-21T07:15:00.223Z,83.90
2023-03-21T07:16:00.244Z,84.00
2023-03-21T07:17:00.064Z,83.94
2023-03-21T07:18:00.072Z,84.21
2023-03-21T07:19:00.066Z,85.20
2023-03-21T07:19:59.418Z,88.02
2023-03-21T07:21:00.145Z,88.02
2023-03-21T07:21:59.387Z,88.08
2023-03-21T07:23:00.112Z,89.42
2023-03-21T07:24:00.075Z,87.40
2023-03-21T07:25:05.239Z,86.95
2023-03-21T07:26:01.785Z,86.85
2023-03-21T07:27:00.055Z,86.33
2023-03-21T07:28:00.034Z,85.78
2023-03-21T07:29:00.005Z,86.91
2023-03-21T07:30:00.021Z,87.32
2023-03-21T07:30:59.991Z,87.79
2023-03-21T07:32:00.053Z,87.49
2023-03-21T07:32:59.974Z,87.38
2023-03-21T07:33:59.941Z,88.78
2023-03-21T07:35:01.697Z,89.09
2023-03-21T07:35:59.967Z,89.60
2023-03-21T07:36:59.924Z,89.91
2023-03-21T07:37:59.902Z,89.87
2023-03-21T07:38:59.868Z,89.25
2023-03-21T07:39:59.874Z,89.15
2023-03-21T07:40:59.856Z,88.84
2023-03-21T07:42:00.582Z,89.56
2023-03-21T07:42:59.891Z,90.24
2023-03-21T07:43:59.790Z,89.93
2023-03-21T07:44:59.808Z,90.75
2023-03-21T07:45:59.860Z,89.72
2023-03-21T07:46:59.802Z,90.91
2023-03-21T07:47:59.796Z,90.24
2023-03-21T07:48:59.733Z,90.09
2023-03-21T07:49:59.743Z,91.02
2023-03-21T07:50:59.726Z,91.42
2023-03-21T07:51:59.705Z,92.66
2023-03-21T07:52:59.702Z,91.63
2023-03-21T07:53:59.662Z,92.14
2023-03-21T07:54:59.671Z,92.76
2023-03-21T07:55:59.664Z,91.94
2023-03-21T07:56:59.650Z,92.46
2023-03-21T07:57:59.852Z,92.76
2023-03-21T07:58:59.584Z,93.54
2023-03-21T07:59:59.601Z,92.61
2023-03-21T08:00:59.586Z,94.98
2023-03-21T08:01:59.605Z,92.68
2023-03-21T08:02:59.708Z,92.16
2023-03-21T08:03:59.509Z,94.07
2023-03-21T08:04:59.538Z,95.20
2023-03-21T08:05:59.518Z,95.25
2023-03-21T08:06:59.502Z,96.58
2023-03-21T08:07:59.493Z,96.03
2023-03-21T08:08:59.458Z,96.79
2023-03-21T08:09:59.457Z,97.36
2023-03-21T08:10:59.446Z,97.15
2023-03-21T08:11:59.438Z,95.88
2023-03-21T08:12:59.412Z,97.98
2023-03-21T08:13:59.409Z,99.01
2023-03-21T08:15:01.070Z,98.70
2023-03-21T08:15:58.752Z,99.37
2023-03-21T08:16:59.477Z,98.54
2023-03-21T08:17:58.814Z,98.08
2023-03-21T08:18:59.357Z,98.08
2023-03-21T08:19:59.335Z,97.47
2023-03-21T08:20:59.317Z,97.47
2023-03-21T08:21:58.924Z,98.90
2023-03-21T08:22:58.954Z,98.54
2023-03-21T08:23:59.249Z,97.21
2023-03-21T08:24:59.983Z,98.44
2023-03-21T08:25:59.336Z,97.88
2023-03-21T08:26:59.224Z,98.08
2023-03-21T08:27:59.234Z,98.19
2023-03-21T08:28:59.932Z,98.60
2023-03-21T08:29:58.803Z,97.88
2023-03-21T08:30:59.247Z,98.70
2023-03-21T08:31:59.163Z,98.39
2023-03-21T08:33:01.216Z,98.90
2023-03-21T08:33:59.870Z,99.41
2023-03-21T08:34:59.127Z,98.70
2023-03-21T08:35:59.852Z,98.49
2023-03-21T08:36:59.822Z,98.49
2023-03-21T08:37:59.090Z,99.41
2023-03-21T08:38:59.778Z,98.96
2023-03-21T08:39:59.078Z,99.37
2023-03-21T08:41:00.281Z,99.22
2023-03-21T08:41:59.737Z,98.91
2023-03-21T08:42:59.738Z,96.77
2023-03-21T08:43:59.727Z,99.02
2023-03-21T08:44:59.704Z,98.15
2023-03-21T08:45:59.728Z,99.18
2023-03-21T08:46:59.667Z,99.07
2023-03-21T08:47:59.714Z,99.68
2023-03-21T08:48:59.654Z,99.84
2023-03-21T08:49:59.633Z,99.84
2023-03-21T08:50:59.631Z,99.59
2023-03-21T08:51:58.894Z,99.29
2023-03-21T08:52:58.890Z,99.99
2023-03-21T08:53:58.843Z,99.13
2023-03-21T08:54:58.852Z,99.02
2023-03-21T08:55:58.845Z,99.99
2023-03-21T08:56:58.848Z,99.99
2023-03-21T08:57:58.807Z,99.08
2023-03-21T08:58:58.784Z,99.99
2023-03-21T08:59:58.751Z,99.95
2023-03-21T09:00:58.773Z,99.85
2023-03-21T09:01:59.552Z,99.99
2023-03-21T09:02:58.765Z,99.60
2023-03-21T09:03:58.720Z,99.99
2023-03-21T09:04:58.768Z,99.96
2023-03-21T09:05:58.690Z,99.76
2023-03-21T09:06:58.680Z,98.68
2023-03-21T09:07:58.676Z,99.13
2023-03-21T09:08:58.880Z,99.89
2023-03-21T09:10:19.073Z,99.95
2023-03-21T09:10:59.630Z,99.99
2023-03-21T09:11:58.609Z,99.85
2023-03-21T09:12:58.600Z,99.19
2023-03-21T09:13:58.601Z,99.29
2023-03-21T09:14:58.553Z,99.65
2023-03-21T09:15:58.257Z,99.54
2023-03-21T09:16:58.556Z,99.90
2023-03-21T09:17:58.542Z,99.99
2023-03-21T09:18:58.516Z,99.34
2023-03-21T09:19:58.486Z,99.24
2023-03-21T09:20:58.496Z,99.54
2023-03-21T09:21:58.476Z,99.44
2023-03-21T09:22:58.469Z,99.34
2023-03-21T09:23:58.443Z,99.09
2023-03-21T09:24:58.415Z,96.30
2023-03-21T09:25:58.416Z,98.34
2023-03-21T09:26:58.398Z,94.07
2023-03-21T09:27:58.403Z,92.84
2023-03-21T09:28:59.094Z,91.62
2023-03-21T09:29:58.154Z,93.25
2023-03-21T09:30:58.211Z,94.82
2023-03-21T09:31:58.342Z,90.66
2023-03-21T09:32:58.325Z,86.25
2023-03-21T09:33:58.187Z,85.84
2023-03-21T09:34:58.281Z,87.37
2023-03-21T09:35:58.288Z,90.46
2023-03-21T09:36:58.163Z,90.30
2023-03-21T09:37:58.171Z,87.77
2023-03-21T09:38:58.243Z,86.07
2023-03-21T09:39:58.203Z,76.24
2023-03-21T09:40:58.218Z,74.68
2023-03-21T09:41:58.159Z,72.25
2023-03-21T09:42:59.180Z,68.26
2023-03-21T09:43:59.169Z,68.93
2023-03-21T09:44:57.489Z,69.60
2023-03-21T09:45:58.381Z,68.52
2023-03-21T09:46:58.173Z,65.83
2023-03-21T09:47:58.164Z,66.67
2023-03-21T09:48:58.116Z,64.79
2023-03-21T09:50:07.604Z,60.12
2023-03-21T09:50:59.812Z,57.23
2023-03-21T09:51:58.068Z,55.66
2023-03-21T09:52:58.056Z,55.74
2023-03-21T09:53:58.053Z,56.83
2023-03-21T09:54:58.031Z,56.17
2023-03-21T09:55:58.009Z,58.22
2023-03-21T09:56:57.997Z,52.44
2023-03-21T09:57:57.987Z,51.79
2023-03-21T09:58:57.968Z,51.89
2023-03-21T09:59:57.936Z,52.74
2023-03-21T10:00:57.967Z,53.42
2023-03-21T10:01:57.936Z,53.80
2023-03-21T10:02:57.916Z,55.87
2023-03-21T10:03:57.907Z,56.27
2023-03-21T10:04:57.883Z,57.06
2023-03-21T10:05:57.897Z,57.29
2023-03-21T10:06:58.093Z,58.56
2023-03-21T10:07:57.852Z,58.76
2023-03-21T10:08:57.834Z,59.14
2023-03-21T10:09:57.803Z,59.18
2023-03-21T10:10:57.819Z,57.46
2023-03-21T10:11:57.801Z,56.63
2023-03-21T10:12:57.774Z,56.40
2023-03-21T10:13:57.776Z,57.52
2023-03-21T10:14:58.867Z,58.33
2023-03-21T10:15:57.761Z,58.30
2023-03-21T10:16:57.808Z,57.64
2023-03-21T10:17:57.941Z,55.99
2023-03-21T10:18:57.727Z,57.18
2023-03-21T10:19:57.662Z,53.38
2023-03-21T10:20:57.675Z,53.42
2023-03-21T10:22:03.067Z,53.09
2023-03-21T10:22:58.645Z,53.78
2023-03-21T10:23:57.622Z,56.25
2023-03-21T10:24:57.604Z,55.41
2023-03-21T10:25:57.683Z,55.09
2023-03-21T10:26:57.599Z,55.14
2023-03-21T10:27:57.575Z,58.18
2023-03-21T10:28:57.791Z,58.76
2023-03-21T10:29:57.556Z,59.92
2023-03-21T10:30:57.528Z,61.21
2023-03-21T10:31:57.600Z,58.92
2023-03-21T10:32:59.524Z,60.66
2023-03-21T10:33:57.486Z,60.91
2023-03-21T10:35:57.514Z,59.83
2023-03-21T10:36:57.462Z,61.98
2023-03-21T10:37:57.438Z,61.51
2023-03-21T10:38:57.017Z,62.24
2023-03-21T10:39:57.637Z,63.23
2023-03-21T10:40:57.078Z,63.20
2023-03-21T10:41:57.387Z,60.94
2023-03-21T10:42:57.133Z,62.33
2023-03-21T10:43:57.363Z,61.35
2023-03-21T10:44:57.398Z,61.68
2023-03-21T10:45:57.469Z,61.17
2023-03-21T10:46:57.643Z,63.93
2023-03-21T10:47:57.455Z,64.61
2023-03-21T10:48:56.894Z,66.60
2023-03-21T10:50:07.164Z,68.02
2023-03-21T10:50:59.070Z,65.86
2023-03-21T10:51:57.241Z,64.75
2023-03-21T10:52:57.944Z,64.75
2023-03-21T10:53:57.227Z,66.77
2023-03-21T10:54:57.916Z,67.72
2023-03-21T10:55:57.916Z,75.73
2023-03-21T10:56:57.201Z,75.82
2023-03-21T10:57:57.885Z,78.66
2023-03-21T10:58:57.861Z,80.12
2023-03-21T10:59:57.853Z,74.48
2023-03-21T11:00:58.007Z,87.61
2023-03-21T11:01:57.870Z,79.99
2023-03-21T11:02:57.814Z,89.92
2023-03-21T11:03:57.814Z,84.74
2023-03-21T11:04:57.069Z,89.52
2023-03-21T11:05:57.039Z,86.82
2023-03-21T11:06:57.034Z,85.60
2023-03-21T11:07:57.744Z,91.69
2023-03-21T11:08:57.743Z,96.53
2023-03-21T11:09:57.722Z,96.69
2023-03-21T11:10:57.722Z,95.87
2023-03-21T11:11:56.971Z,85.62
2023-03-21T11:12:57.692Z,95.57
2023-03-21T11:13:56.956Z,94.76
2023-03-21T11:14:56.929Z,91.71
2023-03-21T11:15:56.903Z,94.35
2023-03-21T11:16:56.913Z,90.86
2023-03-21T11:17:56.889Z,95.53
2023-03-21T11:18:56.898Z,89.29
2023-03-21T11:19:56.875Z,82.87
2023-03-21T11:20:56.141Z,89.58
2023-03-21T11:21:56.845Z,89.98
2023-03-21T11:22:56.832Z,94.45
2023-03-21T11:23:57.338Z,97.50
2023-03-21T11:24:56.781Z,95.63
2023-03-21T11:25:56.765Z,92.68
2023-03-21T11:26:56.779Z,93.09
2023-03-21T11:27:56.764Z,90.03
2023-03-21T11:28:56.041Z,94.35
2023-03-21T11:29:56.737Z,98.16
2023-03-21T11:30:56.741Z,95.22
2023-03-21T11:31:56.715Z,84.36
2023-03-21T11:32:56.680Z,96.64
2023-03-21T11:33:56.673Z,92.72
2023-03-21T11:34:56.891Z,92.06
2023-03-21T11:35:56.637Z,95.62
2023-03-21T11:36:56.633Z,98.01
2023-03-21T11:37:56.673Z,96.44
2023-03-21T11:38:56.598Z,94.67
2023-03-21T11:39:56.589Z,93.05
2023-03-21T11:40:56.566Z,93.96
2023-03-21T11:41:56.561Z,92.44
2023-03-21T11:42:56.584Z,89.90
2023-03-21T11:43:56.537Z,94.06
2023-03-21T11:44:56.259Z,92.94
2023-03-21T11:45:56.768Z,92.33
2023-03-21T11:46:56.258Z,94.06
2023-03-21T11:47:56.316Z,96.90
2023-03-21T11:48:56.460Z,98.22
2023-03-21T11:50:04.659Z,98.63
2023-03-21T11:50:57.117Z,98.52
2023-03-21T11:51:56.425Z,98.52
2023-03-21T11:52:56.269Z,99.08
2023-03-21T11:53:56.397Z,96.75
2023-03-21T11:54:56.386Z,95.51
2023-03-21T11:55:56.385Z,97.29
2023-03-21T11:56:56.273Z,98.10
2023-03-21T11:57:58.030Z,99.93
2023-03-21T11:58:56.337Z,98.55
2023-03-21T11:59:56.312Z,98.95
2023-03-21T12:00:56.279Z,99.16
2023-03-21T12:01:57.020Z,99.71
2023-03-21T12:02:57.060Z,98.65
2023-03-21T12:03:57.027Z,98.34
2023-03-21T12:04:56.251Z,98.54
2023-03-21T12:05:56.231Z,94.88
2023-03-21T12:06:56.196Z,94.88
2023-03-21T12:07:56.210Z,96.81
2023-03-21T12:08:56.198Z,93.45
2023-03-21T12:09:56.183Z,96.41
2023-03-21T12:10:56.161Z,98.59
2023-03-21T12:11:56.120Z,97.37
2023-03-21T12:12:56.130Z,95.18
2023-03-21T12:13:56.120Z,95.53
2023-03-21T12:14:56.116Z,93.50
2023-03-21T12:15:56.150Z,95.94
2023-03-21T12:16:56.046Z,96.35
2023-03-21T12:17:56.068Z,96.45
2023-03-21T12:18:56.058Z,96.96
2023-03-21T12:19:56.045Z,96.30
2023-03-21T12:20:56.024Z,96.10
2023-03-21T12:21:56.005Z,93.25
2023-03-21T12:22:56.029Z,92.03
2023-03-21T12:23:55.983Z,97.78
2023-03-21T12:24:55.992Z,94.42
2023-03-21T12:25:55.962Z,94.42
2023-03-21T12:26:57.479Z,94.98
2023-03-21T12:27:55.939Z,95.24
2023-03-21T12:28:56.628Z,97.83
2023-03-21T12:29:55.908Z,96.92
2023-03-21T12:30:55.954Z,96.81
2023-03-21T12:31:55.856Z,96.26
2023-03-21T12:32:55.861Z,97.13
2023-03-21T12:33:55.846Z,98.35
2023-03-21T12:34:55.832Z,99.99
2023-03-21T12:35:55.831Z,99.67
2023-03-21T12:36:55.779Z,98.55
2023-03-21T12:37:57.838Z,99.31
2023-03-21T12:38:55.765Z,99.62
2023-03-21T12:39:55.767Z,97.74
2023-03-21T12:40:55.307Z,99.63
2023-03-21T12:41:55.714Z,99.98
2023-03-21T12:42:55.719Z,98.50
2023-03-21T12:43:55.718Z,99.02
2023-03-21T12:44:55.686Z,98.71
2023-03-21T12:45:55.686Z,99.73
2023-03-21T12:46:55.702Z,99.58
2023-03-21T12:47:55.688Z,98.77
2023-03-21T12:48:55.309Z,98.16
2023-03-21T12:49:55.630Z,97.24
2023-03-21T12:50:55.602Z,98.11
2023-03-21T12:51:55.574Z,99.13
2023-03-21T12:52:54.932Z,98.50